Blythe Airport Blythe US
ICAO: KBLH
IATA: BLH
Category: Medium
Scheduled Services: No

Elevation: 399 ft
TransAlt. 18000 ft.

Airport Communications:
ASOS:120.175
LOS ANGELES CNTR:128.15
RIVERSIDE RDO:122.4
CTAF/UNICOM:122.8

KBLH Zoom In..

If you have problems with the map follow the link
https://www.worldairports.se/pages/airport.php?
ICAO=KBLH

Runways:

(A) RW 08 length 6543 ft width 150 ft
---- / hdg 77

(B) RW 17 length 5800 ft width 100 ft
---- / hdg 167

(C) RW 26 length 6543 ft width 150 ft
---- / hdg 257

(D) RW 35 length 5800 ft width 100 ft
---- / hdg 347

Location; KBLH
Day. 07 / Time. 07.52 Zulu
* Altimeter: 30.16
* Temperature: 13° c. 55.4°f.
* Wind from: 290° Speed 04 kn.
Dewpoint: 11° c.
Visibility: 10 Statute Miles.
Clouds: Few 7500 ft.

KBLH 070752Z AUTO 29004KT 10SM FEW075 13/11 A3016 RMK AO2 SLP210 T01280111 401940094


Wind From 290°
Speed 04 kn.

 
 
jpsmedia worldairports.se 2019   terms of use